createdAt,value
2023-03-24T00:06:22.678Z,1.00
2023-03-24T00:11:18.894Z,1.00
2023-03-24T00:13:47.189Z,1.00
2023-03-24T00:16:16.907Z,1.00
2023-03-24T00:21:13.431Z,1.00
2023-03-24T00:23:43.533Z,1.00
2023-03-24T00:26:15.062Z,1.00
2023-03-24T00:28:48.226Z,1.00
2023-03-24T00:31:17.880Z,1.00
2023-03-24T00:33:50.863Z,1.00
2023-03-24T00:36:22.964Z,1.00
2023-03-24T00:38:50.717Z,1.00
2023-03-24T00:41:20.370Z,1.00
2023-03-24T00:43:50.218Z,1.00
2023-03-24T00:46:27.810Z,1.00
2023-03-24T00:49:05.387Z,1.00
2023-03-24T00:51:38.951Z,1.00
2023-03-24T00:54:10.908Z,1.00
2023-03-24T00:56:40.465Z,1.00
2023-03-24T01:01:40.677Z,60.40
2023-03-24T01:09:07.123Z,96.20
2023-03-24T01:11:41.198Z,90.40
2023-03-24T01:16:38.672Z,69.40
2023-03-24T01:19:08.497Z,51.90
2023-03-24T01:21:38.267Z,60.00
2023-03-24T01:24:06.491Z,96.30
2023-03-24T01:26:33.783Z,99.90
2023-03-24T01:29:01.052Z,99.90
2023-03-24T01:31:28.187Z,99.90
2023-03-24T01:33:55.309Z,99.90
2023-03-24T01:36:22.599Z,99.90
2023-03-24T01:38:49.618Z,99.90
2023-03-24T01:43:47.282Z,99.90
2023-03-24T01:46:23.259Z,99.90
2023-03-24T01:49:06.915Z,99.90
2023-03-24T01:51:48.885Z,99.90
2023-03-24T01:54:37.225Z,99.90
2023-03-24T01:57:30.017Z,99.90
2023-03-24T02:00:08.007Z,99.90
2023-03-24T02:03:14.719Z,99.90
2023-03-24T02:05:53.413Z,99.90
2023-03-24T02:08:53.071Z,99.90
2023-03-24T02:11:24.174Z,99.90
2023-03-24T02:17:04.659Z,99.90
2023-03-24T02:20:13.300Z,99.90
2023-03-24T02:23:30.199Z,99.90
2023-03-24T02:26:55.726Z,99.90
2023-03-24T02:30:01.969Z,99.90
2023-03-24T02:33:25.636Z,99.90
2023-03-24T02:36:54.490Z,99.90
2023-03-24T02:40:15.280Z,99.90
2023-03-24T02:43:25.167Z,99.90
2023-03-24T02:46:24.832Z,99.90
2023-03-24T02:49:36.795Z,99.90
2023-03-24T02:52:36.529Z,99.90
2023-03-24T02:55:32.980Z,99.90
2023-03-24T02:58:12.473Z,99.90
2023-03-24T03:01:10.470Z,99.90
2023-03-24T03:04:17.639Z,99.90
2023-03-24T03:06:53.762Z,99.90
2023-03-24T03:09:23.706Z,99.90
2023-03-24T03:11:57.451Z,99.90
2023-03-24T03:14:39.018Z,99.90
2023-03-24T03:17:21.209Z,99.90
2023-03-24T03:19:58.015Z,99.90
2023-03-24T03:22:33.801Z,99.90
2023-03-24T03:25:04.443Z,99.90
2023-03-24T03:27:39.055Z,99.90
2023-03-24T03:30:28.246Z,99.90
2023-03-24T03:33:10.614Z,99.90
2023-03-24T03:35:53.401Z,99.90
2023-03-24T03:38:56.819Z,99.90
2023-03-24T03:41:24.776Z,99.90
2023-03-24T03:43:53.107Z,99.90
2023-03-24T03:48:49.840Z,99.90
2023-03-24T03:51:18.278Z,99.90
2023-03-24T03:54:01.201Z,99.90
2023-03-24T03:56:35.397Z,99.90
2023-03-24T03:59:33.615Z,99.90
2023-03-24T04:02:52.528Z,99.90
2023-03-24T04:05:49.862Z,99.90
2023-03-24T04:08:49.129Z,99.90
2023-03-24T04:11:42.838Z,99.90
2023-03-24T04:15:03.884Z,99.90
2023-03-24T04:18:52.984Z,99.90
2023-03-24T04:22:04.601Z,99.90
2023-03-24T04:25:05.900Z,99.90
2023-03-24T04:28:14.188Z,99.90
2023-03-24T04:33:34.153Z,99.90
2023-03-24T04:36:42.517Z,99.90
2023-03-24T04:39:51.044Z,99.90
2023-03-24T04:42:45.278Z,99.90
2023-03-24T04:45:16.953Z,99.90
2023-03-24T04:48:04.571Z,99.90
2023-03-24T04:51:04.164Z,97.30
2023-03-24T04:53:47.935Z,99.90
2023-03-24T04:56:48.680Z,93.60
2023-03-24T04:59:23.043Z,58.00
2023-03-24T05:01:50.903Z,61.20
2023-03-24T05:04:29.820Z,38.50
2023-03-24T05:07:01.626Z,47.70
2023-03-24T05:09:31.380Z,55.30
2023-03-24T05:12:01.511Z,54.40
2023-03-24T05:14:32.748Z,58.40
2023-03-24T05:19:29.115Z,36.80
2023-03-24T05:24:24.053Z,23.30
2023-03-24T05:26:51.039Z,24.40
2023-03-24T05:29:20.948Z,15.00
2023-03-24T05:31:48.429Z,11.40
2023-03-24T05:36:52.069Z,1.00
2023-03-24T05:39:21.565Z,1.00
2023-03-24T05:47:04.489Z,1.00
2023-03-24T05:54:28.238Z,1.00
2023-03-24T05:57:16.521Z,1.00
2023-03-24T06:00:15.379Z,1.00
2023-03-24T06:05:32.442Z,1.00
2023-03-24T06:15:28.708Z,1.00
2023-03-24T06:18:05.446Z,1.00
2023-03-24T06:20:35.892Z,1.00
2023-03-24T06:25:47.485Z,1.00
2023-03-24T06:28:34.410Z,1.00
2023-03-24T06:31:07.348Z,1.00
2023-03-24T06:33:37.014Z,1.00
2023-03-24T06:36:06.652Z,1.00
2023-03-24T06:38:33.693Z,1.00
2023-03-24T06:46:00.580Z,1.00
2023-03-24T06:53:31.287Z,1.00
2023-03-24T07:03:33.650Z,27.20
2023-03-24T07:11:25.269Z,13.50
2023-03-24T07:23:57.838Z,50.00
2023-03-24T07:26:34.890Z,86.80
2023-03-24T07:29:11.739Z,99.90
2023-03-24T07:36:56.746Z,99.90
2023-03-24T07:44:30.822Z,69.90
2023-03-24T07:47:00.585Z,53.10
2023-03-24T07:52:06.336Z,94.60
2023-03-24T08:02:05.759Z,68.20
2023-03-24T08:04:54.433Z,91.40
2023-03-24T08:17:49.891Z,14.30
2023-03-24T08:22:49.673Z,5.80
2023-03-24T08:35:25.289Z,1.00
2023-03-24T08:43:01.345Z,1.00
2023-03-24T08:48:02.582Z,1.00
2023-03-24T08:50:36.575Z,1.00
2023-03-24T09:56:51.376Z,99.90
2023-03-24T10:04:29.388Z,99.90
2023-03-24T10:49:15.778Z,99.90
2023-03-24T11:02:09.404Z,99.90
2023-03-24T11:07:20.971Z,99.90
2023-03-24T11:10:09.911Z,99.90
2023-03-24T11:20:52.580Z,99.90
2023-03-24T11:23:38.017Z,99.90
2023-03-24T11:26:36.961Z,99.90
2023-03-24T11:29:16.789Z,99.90
2023-03-24T11:32:03.411Z,99.90
2023-03-24T11:34:42.319Z,99.90
2023-03-24T11:37:18.302Z,99.90
2023-03-24T11:40:09.917Z,99.90
2023-03-24T11:42:45.868Z,99.90
2023-03-24T11:45:40.848Z,99.90
2023-03-24T11:48:50.768Z,99.90
2023-03-24T11:51:30.667Z,99.90
2023-03-24T11:54:02.246Z,99.90
2023-03-24T11:56:51.957Z,99.90
2023-03-24T11:59:31.950Z,99.90
2023-03-24T12:02:08.302Z,99.90
2023-03-24T12:05:26.943Z,99.90
2023-03-24T12:08:37.401Z,99.90
2023-03-24T12:11:28.238Z,99.90
2023-03-24T12:14:00.910Z,99.90
2023-03-24T12:17:26.049Z,99.90
2023-03-24T12:20:23.599Z,99.90
2023-03-24T12:23:46.704Z,99.90
2023-03-24T12:26:28.468Z,99.90
2023-03-24T12:32:11.601Z,99.90
2023-03-24T12:35:48.153Z,99.90
2023-03-24T12:39:02.717Z,99.90
2023-03-24T12:42:06.061Z,99.90
2023-03-24T12:45:11.393Z,99.90
2023-03-24T12:48:14.996Z,99.90
2023-03-24T12:51:46.271Z,99.90
2023-03-24T12:54:45.987Z,99.90
2023-03-24T12:57:19.847Z,99.90
2023-03-24T13:00:18.857Z,99.90
2023-03-24T13:02:58.571Z,91.10
2023-03-24T13:05:36.669Z,1.00
2023-03-24T13:08:19.326Z,1.00
2023-03-24T13:10:48.525Z,1.00
2023-03-24T13:13:46.341Z,1.00
2023-03-24T13:16:24.788Z,1.00
2023-03-24T13:18:56.380Z,1.00
2023-03-24T13:21:26.388Z,1.00
2023-03-24T13:24:15.090Z,1.00
2023-03-24T13:27:21.684Z,1.00
2023-03-24T13:30:31.217Z,1.00
2023-03-24T13:33:17.377Z,1.00
2023-03-24T13:36:18.917Z,1.00
2023-03-24T13:38:55.153Z,1.00
2023-03-24T13:41:30.653Z,1.00
2023-03-24T13:44:09.379Z,1.00
2023-03-24T13:46:40.957Z,1.00
2023-03-24T13:49:15.391Z,1.00
2023-03-24T13:51:46.892Z,1.00
2023-03-24T13:54:26.357Z,1.00
2023-03-24T13:57:20.651Z,1.00
2023-03-24T14:00:22.172Z,1.00
2023-03-24T14:03:17.166Z,1.00
2023-03-24T14:06:09.533Z,1.00
2023-03-24T14:08:51.981Z,1.00
2023-03-24T14:11:34.591Z,1.00
2023-03-24T14:14:26.050Z,1.00
2023-03-24T14:17:07.951Z,5.90
2023-03-24T14:20:08.925Z,99.90
2023-03-24T14:22:41.725Z,99.90
2023-03-24T14:25:14.977Z,99.90
2023-03-24T14:27:48.603Z,99.90
2023-03-24T14:30:34.196Z,99.90
2023-03-24T14:35:44.219Z,99.90
2023-03-24T14:38:24.911Z,99.90
2023-03-24T14:41:06.791Z,99.90
2023-03-24T14:43:39.699Z,99.90
2023-03-24T14:46:37.460Z,69.70
2023-03-24T14:52:42.821Z,12.40
2023-03-24T14:55:19.739Z,18.80
2023-03-24T14:57:59.810Z,16.40
2023-03-24T15:01:03.912Z,21.40
2023-03-24T15:04:07.478Z,29.50
2023-03-24T15:06:46.827Z,1.00
2023-03-24T15:09:18.542Z,54.30
2023-03-24T15:11:48.327Z,71.40
2023-03-24T15:14:26.281Z,25.50
2023-03-24T15:17:16.212Z,1.00
2023-03-24T15:22:13.963Z,1.00
2023-03-24T15:24:43.112Z,1.00
2023-03-24T15:27:26.793Z,1.00
2023-03-24T15:29:59.254Z,1.00
2023-03-24T15:32:31.454Z,4.00
2023-03-24T15:35:06.064Z,99.90
2023-03-24T15:37:42.961Z,99.90
2023-03-24T15:40:31.762Z,99.90
2023-03-24T15:43:04.460Z,99.90
2023-03-24T15:45:37.618Z,99.90
2023-03-24T15:48:18.749Z,99.90
2023-03-24T15:51:02.838Z,99.90
2023-03-24T15:53:58.107Z,99.90
2023-03-24T15:56:31.718Z,99.90
2023-03-24T15:59:15.506Z,99.90
2023-03-24T16:04:18.052Z,99.90
2023-03-24T16:06:54.338Z,99.90
2023-03-24T16:09:27.203Z,71.60
2023-03-24T16:14:27.493Z,99.90
2023-03-24T16:17:00.000Z,99.90
2023-03-24T16:19:28.302Z,99.90
2023-03-24T16:21:55.933Z,99.90
2023-03-24T16:24:23.579Z,99.90
2023-03-24T16:26:50.613Z,99.90
2023-03-24T16:29:23.228Z,98.30
2023-03-24T16:31:55.316Z,80.40
2023-03-24T16:34:23.942Z,1.00
2023-03-24T16:36:54.551Z,1.00
2023-03-24T16:39:26.302Z,1.00
2023-03-24T16:41:54.858Z,1.00
2023-03-24T16:44:22.375Z,1.00
2023-03-24T16:46:53.794Z,1.00
2023-03-24T16:49:23.661Z,1.00
2023-03-24T17:01:46.430Z,1.00
2023-03-24T17:04:19.543Z,1.00
2023-03-24T17:06:54.058Z,1.00
2023-03-24T17:09:22.031Z,1.00
2023-03-24T17:11:53.729Z,1.00
2023-03-24T17:16:52.488Z,1.00
2023-03-24T17:19:23.281Z,1.00
2023-03-24T17:22:03.732Z,1.00
2023-03-24T17:24:40.985Z,1.00
2023-03-24T17:27:19.524Z,1.00
2023-03-24T17:34:46.681Z,1.00
2023-03-24T17:37:13.823Z,1.00
2023-03-24T17:42:08.338Z,1.00
2023-03-24T17:44:35.691Z,1.00
2023-03-24T17:47:02.775Z,1.00
2023-03-24T17:49:30.203Z,1.00
2023-03-24T17:51:57.294Z,1.00
2023-03-24T17:54:25.286Z,1.00
2023-03-24T17:56:52.302Z,1.00
2023-03-24T18:01:47.177Z,1.00
2023-03-24T18:04:14.326Z,1.00
2023-03-24T18:11:37.099Z,1.00
2023-03-24T18:16:34.986Z,1.00
2023-03-24T18:19:02.482Z,1.00
2023-03-24T18:21:29.608Z,1.00
2023-03-24T18:23:56.956Z,1.00
2023-03-24T18:26:24.306Z,1.00
2023-03-24T18:28:51.403Z,1.00
2023-03-24T18:31:22.959Z,1.00
2023-03-24T18:33:52.364Z,1.00
2023-03-24T18:36:26.208Z,1.00
2023-03-24T18:39:06.484Z,1.00
2023-03-24T18:41:38.476Z,4.40
2023-03-24T18:44:11.407Z,37.90
2023-03-24T18:49:07.084Z,79.50
2023-03-24T18:51:35.468Z,84.30
2023-03-24T18:56:30.076Z,99.90
2023-03-24T19:01:24.831Z,99.90
2023-03-24T19:03:53.725Z,99.90
2023-03-24T19:11:21.349Z,99.90
2023-03-24T19:13:50.441Z,99.90
2023-03-24T19:16:20.389Z,99.90
2023-03-24T19:18:48.249Z,99.90
2023-03-24T19:23:46.526Z,99.90
2023-03-24T19:26:16.472Z,99.90
2023-03-24T19:28:44.418Z,99.90
2023-03-24T19:31:17.558Z,99.90
2023-03-24T19:33:47.426Z,99.90
2023-03-24T19:38:44.403Z,99.90
2023-03-24T19:41:14.993Z,99.90
2023-03-24T19:51:06.076Z,99.90
2023-03-24T19:53:33.598Z,99.90
2023-03-24T19:58:30.209Z,99.90
2023-03-24T20:03:25.973Z,99.90
2023-03-24T20:05:54.228Z,99.90
2023-03-24T20:08:21.892Z,99.90
2023-03-24T20:13:16.401Z,99.90
2023-03-24T20:15:46.448Z,99.90
2023-03-24T20:23:09.667Z,99.90
2023-03-24T20:30:35.777Z,99.90
2023-03-24T20:38:03.596Z,99.90
2023-03-24T20:42:58.273Z,99.90
2023-03-24T20:45:25.703Z,99.90
2023-03-24T20:47:52.780Z,99.90
2023-03-24T20:55:15.204Z,99.90
2023-03-24T20:57:42.321Z,99.90
2023-03-24T21:00:13.583Z,99.90
2023-03-24T21:02:43.304Z,99.90
2023-03-24T21:10:11.247Z,99.90
2023-03-24T21:15:24.635Z,99.90
2023-03-24T21:20:20.844Z,99.90
2023-03-24T21:22:55.448Z,99.90
2023-03-24T21:25:31.865Z,99.90
2023-03-24T21:27:59.567Z,99.90
2023-03-24T21:30:28.899Z,99.90
2023-03-24T21:32:57.493Z,99.90
2023-03-24T21:37:53.688Z,99.90
2023-03-24T21:40:25.239Z,99.90
2023-03-24T21:42:53.689Z,99.90
2023-03-24T21:45:23.443Z,99.90
2023-03-24T21:50:25.660Z,99.90
2023-03-24T21:52:54.667Z,99.90
2023-03-24T21:55:25.236Z,99.90
2023-03-24T21:57:52.804Z,99.90
2023-03-24T22:00:24.431Z,99.90
2023-03-24T22:02:54.468Z,99.90
2023-03-24T22:05:25.899Z,99.90
2023-03-24T22:07:53.854Z,99.90
2023-03-24T22:10:22.766Z,99.90
2023-03-24T22:12:52.102Z,99.90
2023-03-24T22:15:20.916Z,99.90
2023-03-24T22:20:16.400Z,99.90
2023-03-24T22:22:43.453Z,99.90
2023-03-24T22:25:15.436Z,99.90
2023-03-24T22:27:42.407Z,99.90
2023-03-24T22:30:13.327Z,99.90
2023-03-24T22:32:41.874Z,99.90
2023-03-24T22:35:09.522Z,99.90
2023-03-24T22:37:36.749Z,99.90
2023-03-24T22:40:05.584Z,99.90
2023-03-24T22:42:32.963Z,99.90
2023-03-24T22:45:00.389Z,99.90
2023-03-24T22:47:28.764Z,99.90
2023-03-24T22:52:23.389Z,99.90
2023-03-24T22:54:50.364Z,99.90
2023-03-24T22:57:18.533Z,99.90
2023-03-24T22:59:45.609Z,99.90
2023-03-24T23:02:12.607Z,99.90
2023-03-24T23:04:40.329Z,99.90
2023-03-24T23:12:03.761Z,99.90
2023-03-24T23:16:58.771Z,99.90
2023-03-24T23:21:53.298Z,99.90
2023-03-24T23:24:20.485Z,99.90
2023-03-24T23:29:14.882Z,99.90
2023-03-24T23:34:11.746Z,99.90
2023-03-24T23:36:49.730Z,99.90
2023-03-24T23:39:17.198Z,99.90
2023-03-24T23:41:44.384Z,99.90
2023-03-24T23:44:11.419Z,99.90
2023-03-24T23:49:09.815Z,99.90
2023-03-24T23:51:36.878Z,99.90
2023-03-24T23:54:04.104Z,99.90
2023-03-24T23:56:36.620Z,99.90
2023-03-24T23:59:07.098Z,99.90
